sensor_id;sensor_type;location;lat;lon;timestamp;temperature;humidity
53752;DHT22;41095;53.090;6.692;2023-06-26T00:01:23;22.30;99.90
53752;DHT22;41095;53.090;6.692;2023-06-26T00:03:49;22.00;99.90
53752;DHT22;41095;53.090;6.692;2023-06-26T00:06:15;22.10;99.90
53752;DHT22;41095;53.090;6.692;2023-06-26T00:08:40;21.90;99.90
53752;DHT22;41095;53.090;6.692;2023-06-26T00:11:06;21.90;99.90
53752;DHT22;41095;53.090;6.692;2023-06-26T00:13:32;21.80;99.90
53752;DHT22;41095;53.090;6.692;2023-06-26T00:15:58;21.80;99.90
53752;DHT22;41095;53.090;6.692;2023-06-26T00:18:25;21.80;99.90
53752;DHT22;41095;53.090;6.692;2023-06-26T00:20:51;22.00;99.90
53752;DHT22;41095;53.090;6.692;2023-06-26T00:23:17;21.80;99.90
53752;DHT22;41095;53.090;6.692;2023-06-26T00:25:43;21.90;99.90
53752;DHT22;41095;53.090;6.692;2023-06-26T00:28:09;21.90;99.90
53752;DHT22;41095;53.090;6.692;2023-06-26T00:30:35;21.90;99.90
53752;DHT22;41095;53.090;6.692;2023-06-26T00:33:01;21.90;99.90
53752;DHT22;41095;53.090;6.692;2023-06-26T00:35:27;22.00;99.90
53752;DHT22;41095;53.090;6.692;2023-06-26T00:37:53;21.80;99.90
53752;DHT22;41095;53.090;6.692;2023-06-26T00:40:18;21.80;99.90
53752;DHT22;41095;53.090;6.692;2023-06-26T00:42:44;21.70;99.90
53752;DHT22;41095;53.090;6.692;2023-06-26T00:45:10;21.40;99.90
53752;DHT22;41095;53.090;6.692;2023-06-26T00:47:36;21.60;99.90
53752;DHT22;41095;53.090;6.692;2023-06-26T00:50:02;21.50;99.90
53752;DHT22;41095;53.090;6.692;2023-06-26T00:52:29;21.40;99.90
53752;DHT22;41095;53.090;6.692;2023-06-26T00:54:55;21.50;99.90
53752;DHT22;41095;53.090;6.692;2023-06-26T00:57:21;21.30;99.90
53752;DHT22;41095;53.090;6.692;2023-06-26T00:59:47;21.40;99.90
53752;DHT22;41095;53.090;6.692;2023-06-26T01:02:13;21.50;99.90
53752;DHT22;41095;53.090;6.692;2023-06-26T01:04:49;21.30;99.90
53752;DHT22;41095;53.090;6.692;2023-06-26T01:07:16;21.80;99.90
53752;DHT22;41095;53.090;6.692;2023-06-26T01:09:46;21.20;99.90
53752;DHT22;41095;53.090;6.692;2023-06-26T01:12:12;21.20;99.90
53752;DHT22;41095;53.090;6.692;2023-06-26T01:14:38;21.10;99.90
53752;DHT22;41095;53.090;6.692;2023-06-26T01:17:04;21.10;99.90
53752;DHT22;41095;53.090;6.692;2023-06-26T01:19:31;21.10;99.90
53752;DHT22;41095;53.090;6.692;2023-06-26T01:22:10;21.40;99.90
53752;DHT22;41095;53.090;6.692;2023-06-26T01:24:45;21.00;99.90
53752;DHT22;41095;53.090;6.692;2023-06-26T01:27:13;21.00;99.90
53752;DHT22;41095;53.090;6.692;2023-06-26T01:29:40;20.80;99.90
53752;DHT22;41095;53.090;6.692;2023-06-26T01:32:06;20.90;99.90
53752;DHT22;41095;53.090;6.692;2023-06-26T01:36:58;22.60;99.90
53752;DHT22;41095;53.090;6.692;2023-06-26T01:39:24;21.00;99.90
53752;DHT22;41095;53.090;6.692;2023-06-26T01:41:50;21.00;99.90
53752;DHT22;41095;53.090;6.692;2023-06-26T01:44:37;21.10;99.90
53752;DHT22;41095;53.090;6.692;2023-06-26T01:47:04;21.00;99.90
53752;DHT22;41095;53.090;6.692;2023-06-26T01:55:09;21.00;99.90
53752;DHT22;41095;53.090;6.692;2023-06-26T01:57:36;21.00;99.90
53752;DHT22;41095;53.090;6.692;2023-06-26T02:00:04;20.90;99.90
53752;DHT22;41095;53.090;6.692;2023-06-26T02:02:31;20.90;99.90
53752;DHT22;41095;53.090;6.692;2023-06-26T02:04:57;20.90;99.90
53752;DHT22;41095;53.090;6.692;2023-06-26T02:07:22;20.90;99.90
53752;DHT22;41095;53.090;6.692;2023-06-26T02:09:48;20.90;99.90
53752;DHT22;41095;53.090;6.692;2023-06-26T02:12:14;20.90;99.90
53752;DHT22;41095;53.090;6.692;2023-06-26T02:14:40;20.80;99.90
53752;DHT22;41095;53.090;6.692;2023-06-26T02:17:05;20.80;99.90
53752;DHT22;41095;53.090;6.692;2023-06-26T02:19:32;20.90;99.90
53752;DHT22;41095;53.090;6.692;2023-06-26T02:21:58;20.90;99.90
53752;DHT22;41095;53.090;6.692;2023-06-26T02:24:23;20.90;99.90
53752;DHT22;41095;53.090;6.692;2023-06-26T02:26:49;20.80;99.90
53752;DHT22;41095;53.090;6.692;2023-06-26T02:29:15;20.80;99.90
53752;DHT22;41095;53.090;6.692;2023-06-26T02:31:40;20.80;99.90
53752;DHT22;41095;53.090;6.692;2023-06-26T02:34:06;20.50;99.90
53752;DHT22;41095;53.090;6.692;2023-06-26T02:36:32;20.80;99.90
53752;DHT22;41095;53.090;6.692;2023-06-26T02:38:58;20.80;99.90
53752;DHT22;41095;53.090;6.692;2023-06-26T02:41:24;21.10;99.90
53752;DHT22;41095;53.090;6.692;2023-06-26T02:43:49;20.90;99.90
53752;DHT22;41095;53.090;6.692;2023-06-26T02:46:15;20.90;99.90
53752;DHT22;41095;53.090;6.692;2023-06-26T02:48:41;21.30;99.90
53752;DHT22;41095;53.090;6.692;2023-06-26T02:51:07;20.90;99.90
53752;DHT22;41095;53.090;6.692;2023-06-26T03:20:21;21.00;99.90
53752;DHT22;41095;53.090;6.692;2023-06-26T03:22:46;21.00;99.90
53752;DHT22;41095;53.090;6.692;2023-06-26T03:25:12;21.00;99.90
53752;DHT22;41095;53.090;6.692;2023-06-26T03:27:38;21.00;99.90
53752;DHT22;41095;53.090;6.692;2023-06-26T03:30:04;21.00;99.90
53752;DHT22;41095;53.090;6.692;2023-06-26T03:32:29;21.00;99.90
53752;DHT22;41095;53.090;6.692;2023-06-26T03:34:55;21.00;99.90
53752;DHT22;41095;53.090;6.692;2023-06-26T03:37:21;21.00;99.90
53752;DHT22;41095;53.090;6.692;2023-06-26T03:39:47;21.00;99.90
53752;DHT22;41095;53.090;6.692;2023-06-26T03:42:13;21.00;99.90
53752;DHT22;41095;53.090;6.692;2023-06-26T03:44:39;21.10;99.90
53752;DHT22;41095;53.090;6.692;2023-06-26T03:47:04;21.10;99.90
53752;DHT22;41095;53.090;6.692;2023-06-26T03:49:30;21.10;99.90
53752;DHT22;41095;53.090;6.692;2023-06-26T03:51:56;21.10;99.90
53752;DHT22;41095;53.090;6.692;2023-06-26T03:54:21;21.10;99.90
53752;DHT22;41095;53.090;6.692;2023-06-26T03:56:47;21.20;99.90
53752;DHT22;41095;53.090;6.692;2023-06-26T03:59:13;21.20;99.90
53752;DHT22;41095;53.090;6.692;2023-06-26T04:01:38;21.30;99.90
53752;DHT22;41095;53.090;6.692;2023-06-26T04:04:04;21.30;99.90
53752;DHT22;41095;53.090;6.692;2023-06-26T04:06:30;21.40;99.90
53752;DHT22;41095;53.090;6.692;2023-06-26T04:08:59;21.50;99.90
53752;DHT22;41095;53.090;6.692;2023-06-26T04:11:25;21.50;99.90
53752;DHT22;41095;53.090;6.692;2023-06-26T04:13:50;21.60;99.90
53752;DHT22;41095;53.090;6.692;2023-06-26T04:16:16;21.60;99.90
53752;DHT22;41095;53.090;6.692;2023-06-26T04:18:42;21.50;99.90
53752;DHT22;41095;53.090;6.692;2023-06-26T04:21:12;21.60;99.90
53752;DHT22;41095;53.090;6.692;2023-06-26T04:23:39;21.60;99.90
53752;DHT22;41095;53.090;6.692;2023-06-26T04:26:06;21.50;99.90
53752;DHT22;41095;53.090;6.692;2023-06-26T04:28:32;21.60;99.90
53752;DHT22;41095;53.090;6.692;2023-06-26T04:30:59;21.60;99.90
53752;DHT22;41095;53.090;6.692;2023-06-26T04:33:25;21.50;99.90
53752;DHT22;41095;53.090;6.692;2023-06-26T04:35:51;21.60;99.90
53752;DHT22;41095;53.090;6.692;2023-06-26T04:38:17;21.60;99.90
53752;DHT22;41095;53.090;6.692;2023-06-26T04:40:43;21.60;99.90
53752;DHT22;41095;53.090;6.692;2023-06-26T04:43:09;21.70;99.90
53752;DHT22;41095;53.090;6.692;2023-06-26T04:45:35;21.70;99.90
53752;DHT22;41095;53.090;6.692;2023-06-26T04:52:57;21.90;99.90
53752;DHT22;41095;53.090;6.692;2023-06-26T04:55:24;22.00;99.90
53752;DHT22;41095;53.090;6.692;2023-06-26T05:00:17;22.20;99.90
53752;DHT22;41095;53.090;6.692;2023-06-26T05:17:20;22.40;99.90
53752;DHT22;41095;53.090;6.692;2023-06-26T05:19:46;22.50;99.90
53752;DHT22;41095;53.090;6.692;2023-06-26T05:22:13;22.30;99.90
53752;DHT22;41095;53.090;6.692;2023-06-26T05:24:40;22.20;99.90
53752;DHT22;41095;53.090;6.692;2023-06-26T05:27:07;22.30;99.90
53752;DHT22;41095;53.090;6.692;2023-06-26T05:29:33;22.30;99.90
53752;DHT22;41095;53.090;6.692;2023-06-26T05:31:59;22.30;99.90
53752;DHT22;41095;53.090;6.692;2023-06-26T05:34:26;22.40;99.90
53752;DHT22;41095;53.090;6.692;2023-06-26T05:37:00;22.40;99.90
53752;DHT22;41095;53.090;6.692;2023-06-26T05:39:27;22.40;99.90
53752;DHT22;41095;53.090;6.692;2023-06-26T05:41:53;22.30;99.90
53752;DHT22;41095;53.090;6.692;2023-06-26T05:44:19;22.20;99.90
53752;DHT22;41095;53.090;6.692;2023-06-26T05:46:46;22.00;99.90
53752;DHT22;41095;53.090;6.692;2023-06-26T05:49:11;21.90;99.90
53752;DHT22;41095;53.090;6.692;2023-06-26T05:51:37;21.80;99.90
53752;DHT22;41095;53.090;6.692;2023-06-26T05:54:03;21.70;99.90
53752;DHT22;41095;53.090;6.692;2023-06-26T05:56:30;21.60;99.90
53752;DHT22;41095;53.090;6.692;2023-06-26T05:58:56;21.60;99.90
53752;DHT22;41095;53.090;6.692;2023-06-26T06:01:22;21.60;99.90
53752;DHT22;41095;53.090;6.692;2023-06-26T06:03:49;21.60;99.90
53752;DHT22;41095;53.090;6.692;2023-06-26T06:06:15;21.50;99.90
53752;DHT22;41095;53.090;6.692;2023-06-26T06:08:41;21.50;99.90
53752;DHT22;41095;53.090;6.692;2023-06-26T06:11:07;21.30;99.90
53752;DHT22;41095;53.090;6.692;2023-06-26T06:13:33;21.30;99.90
53752;DHT22;41095;53.090;6.692;2023-06-26T06:15:58;21.30;99.90
53752;DHT22;41095;53.090;6.692;2023-06-26T06:18:24;21.40;99.90
53752;DHT22;41095;53.090;6.692;2023-06-26T06:20:50;21.60;99.90
53752;DHT22;41095;53.090;6.692;2023-06-26T06:23:15;21.90;99.90
53752;DHT22;41095;53.090;6.692;2023-06-26T06:25:41;22.20;99.90
53752;DHT22;41095;53.090;6.692;2023-06-26T06:28:07;22.50;99.90
53752;DHT22;41095;53.090;6.692;2023-06-26T06:30:32;22.60;99.90
53752;DHT22;41095;53.090;6.692;2023-06-26T06:32:58;22.80;99.90
53752;DHT22;41095;53.090;6.692;2023-06-26T06:35:24;23.40;99.90
53752;DHT22;41095;53.090;6.692;2023-06-26T06:37:50;24.10;99.90
53752;DHT22;41095;53.090;6.692;2023-06-26T06:40:15;24.70;99.90
53752;DHT22;41095;53.090;6.692;2023-06-26T06:42:41;24.60;99.90
53752;DHT22;41095;53.090;6.692;2023-06-26T06:45:07;24.00;99.90
53752;DHT22;41095;53.090;6.692;2023-06-26T06:47:33;23.60;99.90
53752;DHT22;41095;53.090;6.692;2023-06-26T06:50:00;23.70;99.90
53752;DHT22;41095;53.090;6.692;2023-06-26T06:52:37;24.20;99.90
53752;DHT22;41095;53.090;6.692;2023-06-26T06:55:04;24.80;99.60
53752;DHT22;41095;53.090;6.692;2023-06-26T06:57:39;25.60;99.40
53752;DHT22;41095;53.090;6.692;2023-06-26T07:02:35;25.90;97.90
53752;DHT22;41095;53.090;6.692;2023-06-26T07:05:01;25.70;96.90
53752;DHT22;41095;53.090;6.692;2023-06-26T07:07:30;25.60;96.30
53752;DHT22;41095;53.090;6.692;2023-06-26T07:10:00;25.70;96.40
53752;DHT22;41095;53.090;6.692;2023-06-26T07:12:26;26.00;94.70
53752;DHT22;41095;53.090;6.692;2023-06-26T07:14:52;26.50;96.00
53752;DHT22;41095;53.090;6.692;2023-06-26T07:17:19;27.10;96.40
53752;DHT22;41095;53.090;6.692;2023-06-26T07:19:45;27.50;94.90
53752;DHT22;41095;53.090;6.692;2023-06-26T07:22:11;27.30;92.00
53752;DHT22;41095;53.090;6.692;2023-06-26T07:24:37;27.60;93.60
53752;DHT22;41095;53.090;6.692;2023-06-26T07:27:03;27.60;94.00
53752;DHT22;41095;53.090;6.692;2023-06-26T07:29:29;27.80;93.80
53752;DHT22;41095;53.090;6.692;2023-06-26T07:31:54;27.80;92.50
53752;DHT22;41095;53.090;6.692;2023-06-26T07:34:20;27.70;92.70
53752;DHT22;41095;53.090;6.692;2023-06-26T07:36:46;28.20;92.50
53752;DHT22;41095;53.090;6.692;2023-06-26T07:39:11;28.40;90.50
53752;DHT22;41095;53.090;6.692;2023-06-26T07:41:37;28.30;90.90
53752;DHT22;41095;53.090;6.692;2023-06-26T07:44:03;28.20;90.80
53752;DHT22;41095;53.090;6.692;2023-06-26T07:46:29;28.50;91.10
53752;DHT22;41095;53.090;6.692;2023-06-26T07:48:54;28.80;90.90
53752;DHT22;41095;53.090;6.692;2023-06-26T07:51:20;29.20;90.80
53752;DHT22;41095;53.090;6.692;2023-06-26T07:53:46;28.80;90.60
53752;DHT22;41095;53.090;6.692;2023-06-26T07:56:12;28.70;90.80
53752;DHT22;41095;53.090;6.692;2023-06-26T07:58:38;28.40;91.00
53752;DHT22;41095;53.090;6.692;2023-06-26T08:01:03;28.00;90.60
53752;DHT22;41095;53.090;6.692;2023-06-26T08:03:29;28.10;90.80
53752;DHT22;41095;53.090;6.692;2023-06-26T08:05:55;27.50;90.80
53752;DHT22;41095;53.090;6.692;2023-06-26T08:08:20;28.00;91.20
53752;DHT22;41095;53.090;6.692;2023-06-26T08:10:46;28.70;90.90
53752;DHT22;41095;53.090;6.692;2023-06-26T08:13:12;28.10;90.00
53752;DHT22;41095;53.090;6.692;2023-06-26T08:15:38;27.70;90.60
53752;DHT22;41095;53.090;6.692;2023-06-26T08:18:04;27.30;90.30
53752;DHT22;41095;53.090;6.692;2023-06-26T08:20:30;27.40;90.00
53752;DHT22;41095;53.090;6.692;2023-06-26T08:22:56;27.90;90.20
53752;DHT22;41095;53.090;6.692;2023-06-26T08:25:21;28.60;90.40
53752;DHT22;41095;53.090;6.692;2023-06-26T08:27:47;27.80;87.90
53752;DHT22;41095;53.090;6.692;2023-06-26T08:30:13;27.30;89.60
53752;DHT22;41095;53.090;6.692;2023-06-26T08:32:39;27.00;90.10
53752;DHT22;41095;53.090;6.692;2023-06-26T08:35:06;26.10;90.40
53752;DHT22;41095;53.090;6.692;2023-06-26T08:37:32;25.60;90.80
53752;DHT22;41095;53.090;6.692;2023-06-26T08:39:59;25.60;91.20
53752;DHT22;41095;53.090;6.692;2023-06-26T08:42:25;26.60;90.40
53752;DHT22;41095;53.090;6.692;2023-06-26T08:44:51;26.80;90.70
53752;DHT22;41095;53.090;6.692;2023-06-26T08:47:19;26.60;90.60
53752;DHT22;41095;53.090;6.692;2023-06-26T08:49:52;26.30;90.40
53752;DHT22;41095;53.090;6.692;2023-06-26T08:52:27;26.40;90.50
53752;DHT22;41095;53.090;6.692;2023-06-26T08:54:58;26.40;90.70
53752;DHT22;41095;53.090;6.692;2023-06-26T08:57:25;26.60;90.50
53752;DHT22;41095;53.090;6.692;2023-06-26T08:59:52;26.60;90.50
53752;DHT22;41095;53.090;6.692;2023-06-26T09:02:17;27.30;90.10
53752;DHT22;41095;53.090;6.692;2023-06-26T09:04:43;27.40;88.90
53752;DHT22;41095;53.090;6.692;2023-06-26T09:07:09;27.00;88.50
53752;DHT22;41095;53.090;6.692;2023-06-26T09:09:35;26.40;89.60
53752;DHT22;41095;53.090;6.692;2023-06-26T09:12:02;25.90;90.00
53752;DHT22;41095;53.090;6.692;2023-06-26T09:14:29;26.40;90.30
53752;DHT22;41095;53.090;6.692;2023-06-26T09:16:55;26.90;90.20
53752;DHT22;41095;53.090;6.692;2023-06-26T09:19:21;26.90;90.10
53752;DHT22;41095;53.090;6.692;2023-06-26T09:21:49;26.80;90.00
53752;DHT22;41095;53.090;6.692;2023-06-26T09:24:16;26.60;90.20
53752;DHT22;41095;53.090;6.692;2023-06-26T09:26:42;26.00;90.20
53752;DHT22;41095;53.090;6.692;2023-06-26T09:29:09;26.10;90.40
53752;DHT22;41095;53.090;6.692;2023-06-26T09:31:39;27.00;90.40
53752;DHT22;41095;53.090;6.692;2023-06-26T09:34:05;27.90;90.10
53752;DHT22;41095;53.090;6.692;2023-06-26T09:36:32;27.90;88.20
53752;DHT22;41095;53.090;6.692;2023-06-26T09:39:05;28.00;88.70
53752;DHT22;41095;53.090;6.692;2023-06-26T09:41:35;28.20;86.30
53752;DHT22;41095;53.090;6.692;2023-06-26T09:44:02;28.60;88.00
53752;DHT22;41095;53.090;6.692;2023-06-26T09:46:30;28.20;85.80
53752;DHT22;41095;53.090;6.692;2023-06-26T09:49:04;28.30;86.80
53752;DHT22;41095;53.090;6.692;2023-06-26T09:51:36;28.10;84.40
53752;DHT22;41095;53.090;6.692;2023-06-26T09:54:04;27.90;83.70
53752;DHT22;41095;53.090;6.692;2023-06-26T09:56:30;27.10;85.40
53752;DHT22;41095;53.090;6.692;2023-06-26T09:58:57;26.40;86.50
53752;DHT22;41095;53.090;6.692;2023-06-26T10:01:24;26.00;86.90
53752;DHT22;41095;53.090;6.692;2023-06-26T10:03:50;26.80;87.80
53752;DHT22;41095;53.090;6.692;2023-06-26T10:06:19;26.70;87.10
53752;DHT22;41095;53.090;6.692;2023-06-26T10:08:49;25.90;87.90
53752;DHT22;41095;53.090;6.692;2023-06-26T10:11:18;25.90;87.80
53752;DHT22;41095;53.090;6.692;2023-06-26T10:13:48;25.30;88.20
53752;DHT22;41095;53.090;6.692;2023-06-26T10:16:20;26.10;89.10
53752;DHT22;41095;53.090;6.692;2023-06-26T10:18:50;26.20;88.50
53752;DHT22;41095;53.090;6.692;2023-06-26T10:23:44;26.50;85.80
53752;DHT22;41095;53.090;6.692;2023-06-26T10:26:11;26.20;85.50
53752;DHT22;41095;53.090;6.692;2023-06-26T10:28:40;26.40;86.10
53752;DHT22;41095;53.090;6.692;2023-06-26T10:31:07;26.40;86.60
53752;DHT22;41095;53.090;6.692;2023-06-26T10:33:35;26.10;86.10
53752;DHT22;41095;53.090;6.692;2023-06-26T10:36:15;26.10;86.10
53752;DHT22;41095;53.090;6.692;2023-06-26T10:39:07;26.60;84.70
53752;DHT22;41095;53.090;6.692;2023-06-26T10:41:41;27.10;84.80
53752;DHT22;41095;53.090;6.692;2023-06-26T10:44:19;27.30;84.00
53752;DHT22;41095;53.090;6.692;2023-06-26T10:46:51;26.80;81.70
53752;DHT22;41095;53.090;6.692;2023-06-26T10:49:24;26.90;83.70
53752;DHT22;41095;53.090;6.692;2023-06-26T10:51:51;26.70;84.20
53752;DHT22;41095;53.090;6.692;2023-06-26T10:54:18;26.40;83.70
53752;DHT22;41095;53.090;6.692;2023-06-26T10:59:34;26.40;83.90
53752;DHT22;41095;53.090;6.692;2023-06-26T11:02:00;26.70;82.60
53752;DHT22;41095;53.090;6.692;2023-06-26T11:04:50;27.10;83.40
53752;DHT22;41095;53.090;6.692;2023-06-26T11:07:26;27.30;82.20
53752;DHT22;41095;53.090;6.692;2023-06-26T11:10:08;26.90;82.90
53752;DHT22;41095;53.090;6.692;2023-06-26T11:12:45;26.60;83.80
53752;DHT22;41095;53.090;6.692;2023-06-26T11:15:17;26.30;83.70
53752;DHT22;41095;53.090;6.692;2023-06-26T11:17:44;26.10;82.90
53752;DHT22;41095;53.090;6.692;2023-06-26T11:20:14;25.60;81.90
53752;DHT22;41095;53.090;6.692;2023-06-26T11:22:42;25.50;83.50
53752;DHT22;41095;53.090;6.692;2023-06-26T11:25:09;25.20;83.60
53752;DHT22;41095;53.090;6.692;2023-06-26T11:30:08;25.40;84.70
53752;DHT22;41095;53.090;6.692;2023-06-26T11:32:36;25.80;84.80
53752;DHT22;41095;53.090;6.692;2023-06-26T11:35:01;25.80;84.30
53752;DHT22;41095;53.090;6.692;2023-06-26T11:37:27;25.90;82.50
53752;DHT22;41095;53.090;6.692;2023-06-26T11:39:53;25.70;82.50
53752;DHT22;41095;53.090;6.692;2023-06-26T11:42:20;25.60;82.10
53752;DHT22;41095;53.090;6.692;2023-06-26T11:44:46;25.40;82.00
53752;DHT22;41095;53.090;6.692;2023-06-26T11:47:18;25.60;82.90
53752;DHT22;41095;53.090;6.692;2023-06-26T11:49:47;25.70;84.40
53752;DHT22;41095;53.090;6.692;2023-06-26T11:52:14;25.90;83.80
53752;DHT22;41095;53.090;6.692;2023-06-26T11:54:41;26.20;83.40
53752;DHT22;41095;53.090;6.692;2023-06-26T11:57:07;26.40;83.70
53752;DHT22;41095;53.090;6.692;2023-06-26T11:59:38;26.00;82.90
53752;DHT22;41095;53.090;6.692;2023-06-26T12:02:06;26.00;83.30
53752;DHT22;41095;53.090;6.692;2023-06-26T12:04:33;25.60;82.50
53752;DHT22;41095;53.090;6.692;2023-06-26T12:07:01;25.20;83.50
53752;DHT22;41095;53.090;6.692;2023-06-26T12:09:29;25.10;83.20
53752;DHT22;41095;53.090;6.692;2023-06-26T12:11:56;25.30;83.90
53752;DHT22;41095;53.090;6.692;2023-06-26T12:14:23;25.40;83.70
53752;DHT22;41095;53.090;6.692;2023-06-26T12:16:51;25.30;82.40
53752;DHT22;41095;53.090;6.692;2023-06-26T12:19:17;25.30;83.00
53752;DHT22;41095;53.090;6.692;2023-06-26T12:21:49;25.20;83.20
53752;DHT22;41095;53.090;6.692;2023-06-26T12:24:20;25.00;83.10
53752;DHT22;41095;53.090;6.692;2023-06-26T12:26:51;25.00;83.40
53752;DHT22;41095;53.090;6.692;2023-06-26T12:29:19;24.90;83.20
53752;DHT22;41095;53.090;6.692;2023-06-26T12:31:49;25.00;83.50
53752;DHT22;41095;53.090;6.692;2023-06-26T12:34:18;25.20;83.40
53752;DHT22;41095;53.090;6.692;2023-06-26T12:36:48;25.40;82.70
53752;DHT22;41095;53.090;6.692;2023-06-26T12:39:19;25.60;83.40
53752;DHT22;41095;53.090;6.692;2023-06-26T12:41:51;25.50;82.80
53752;DHT22;41095;53.090;6.692;2023-06-26T12:44:22;25.50;82.10
53752;DHT22;41095;53.090;6.692;2023-06-26T12:46:53;25.50;81.60
53752;DHT22;41095;53.090;6.692;2023-06-26T12:49:18;25.20;81.20
53752;DHT22;41095;53.090;6.692;2023-06-26T12:51:44;25.00;80.40
53752;DHT22;41095;53.090;6.692;2023-06-26T12:54:10;25.00;81.60
53752;DHT22;41095;53.090;6.692;2023-06-26T12:56:36;25.10;82.10
53752;DHT22;41095;53.090;6.692;2023-06-26T12:59:02;25.00;82.10
53752;DHT22;41095;53.090;6.692;2023-06-26T13:01:28;25.00;82.80
53752;DHT22;41095;53.090;6.692;2023-06-26T13:03:54;24.90;82.00
53752;DHT22;41095;53.090;6.692;2023-06-26T13:06:20;24.90;82.60
53752;DHT22;41095;53.090;6.692;2023-06-26T13:08:46;24.80;83.00
53752;DHT22;41095;53.090;6.692;2023-06-26T13:11:12;24.30;80.50
53752;DHT22;41095;53.090;6.692;2023-06-26T13:13:37;24.60;81.50
53752;DHT22;41095;53.090;6.692;2023-06-26T13:16:03;24.70;81.50
53752;DHT22;41095;53.090;6.692;2023-06-26T13:18:29;24.50;77.40
53752;DHT22;41095;53.090;6.692;2023-06-26T13:20:54;24.50;79.50
53752;DHT22;41095;53.090;6.692;2023-06-26T13:23:20;23.80;79.30
53752;DHT22;41095;53.090;6.692;2023-06-26T13:25:46;24.60;81.40
53752;DHT22;41095;53.090;6.692;2023-06-26T13:28:12;24.70;81.60
53752;DHT22;41095;53.090;6.692;2023-06-26T13:30:37;24.80;82.60
53752;DHT22;41095;53.090;6.692;2023-06-26T13:33:03;24.80;83.00
53752;DHT22;41095;53.090;6.692;2023-06-26T13:35:30;24.90;84.00
53752;DHT22;41095;53.090;6.692;2023-06-26T13:37:56;23.90;90.30
53752;DHT22;41095;53.090;6.692;2023-06-26T13:40:22;24.60;83.60
53752;DHT22;41095;53.090;6.692;2023-06-26T13:42:48;24.50;83.70
53752;DHT22;41095;53.090;6.692;2023-06-26T13:45:14;24.60;84.50
53752;DHT22;41095;53.090;6.692;2023-06-26T13:47:39;24.60;84.90
53752;DHT22;41095;53.090;6.692;2023-06-26T13:50:08;24.70;84.90
53752;DHT22;41095;53.090;6.692;2023-06-26T13:52:34;24.60;84.90
53752;DHT22;41095;53.090;6.692;2023-06-26T13:55:00;25.20;91.20
53752;DHT22;41095;53.090;6.692;2023-06-26T13:57:26;24.20;85.30
53752;DHT22;41095;53.090;6.692;2023-06-26T13:59:53;24.40;85.50
53752;DHT22;41095;53.090;6.692;2023-06-26T14:02:19;24.60;85.00
53752;DHT22;41095;53.090;6.692;2023-06-26T14:04:45;24.60;84.40
53752;DHT22;41095;53.090;6.692;2023-06-26T14:07:10;24.60;88.20
53752;DHT22;41095;53.090;6.692;2023-06-26T14:09:36;24.50;90.40
53752;DHT22;41095;53.090;6.692;2023-06-26T14:12:02;24.60;84.60
53752;DHT22;41095;53.090;6.692;2023-06-26T14:14:28;24.60;85.60
53752;DHT22;41095;53.090;6.692;2023-06-26T14:16:53;24.70;85.10
53752;DHT22;41095;53.090;6.692;2023-06-26T14:19:19;24.70;85.20
53752;DHT22;41095;53.090;6.692;2023-06-26T14:21:45;25.10;87.40
53752;DHT22;41095;53.090;6.692;2023-06-26T14:24:10;24.90;89.50
53752;DHT22;41095;53.090;6.692;2023-06-26T14:26:36;24.90;82.60
53752;DHT22;41095;53.090;6.692;2023-06-26T14:29:02;24.50;88.70
53752;DHT22;41095;53.090;6.692;2023-06-26T14:31:28;24.10;90.80
53752;DHT22;41095;53.090;6.692;2023-06-26T14:33:53;23.90;90.60
53752;DHT22;41095;53.090;6.692;2023-06-26T14:36:19;23.90;85.00
53752;DHT22;41095;53.090;6.692;2023-06-26T14:38:45;23.90;85.60
53752;DHT22;41095;53.090;6.692;2023-06-26T14:41:11;23.50;90.10
53752;DHT22;41095;53.090;6.692;2023-06-26T14:43:38;22.50;89.50
53752;DHT22;41095;53.090;6.692;2023-06-26T14:46:04;22.90;90.10
53752;DHT22;41095;53.090;6.692;2023-06-26T14:48:29;23.00;90.40
53752;DHT22;41095;53.090;6.692;2023-06-26T14:50:55;23.90;85.00
53752;DHT22;41095;53.090;6.692;2023-06-26T14:53:21;24.00;84.70
53752;DHT22;41095;53.090;6.692;2023-06-26T14:55:46;25.40;90.30
53752;DHT22;41095;53.090;6.692;2023-06-26T14:58:12;24.40;84.00
53752;DHT22;41095;53.090;6.692;2023-06-26T15:00:38;25.20;90.70
53752;DHT22;41095;53.090;6.692;2023-06-26T15:03:03;23.80;89.80
53752;DHT22;41095;53.090;6.692;2023-06-26T15:05:29;24.80;89.40
53752;DHT22;41095;53.090;6.692;2023-06-26T15:07:55;24.80;89.60
53752;DHT22;41095;53.090;6.692;2023-06-26T15:10:20;23.80;87.80
53752;DHT22;41095;53.090;6.692;2023-06-26T15:12:47;24.80;89.80
53752;DHT22;41095;53.090;6.692;2023-06-26T15:15:13;23.70;89.60
53752;DHT22;41095;53.090;6.692;2023-06-26T15:17:39;24.70;90.00
53752;DHT22;41095;53.090;6.692;2023-06-26T15:20:05;24.80;90.00
53752;DHT22;41095;53.090;6.692;2023-06-26T15:22:31;24.30;89.50
53752;DHT22;41095;53.090;6.692;2023-06-26T15:24:57;24.60;83.60
53752;DHT22;41095;53.090;6.692;2023-06-26T15:27:23;24.60;88.20
53752;DHT22;41095;53.090;6.692;2023-06-26T15:29:48;23.70;90.00
53752;DHT22;41095;53.090;6.692;2023-06-26T15:32:14;24.00;83.70
53752;DHT22;41095;53.090;6.692;2023-06-26T15:34:41;25.30;88.40
53752;DHT22;41095;53.090;6.692;2023-06-26T15:37:07;23.50;87.70
53752;DHT22;41095;53.090;6.692;2023-06-26T15:39:33;23.10;89.90
53752;DHT22;41095;53.090;6.692;2023-06-26T15:41:58;23.70;83.30
53752;DHT22;41095;53.090;6.692;2023-06-26T15:44:24;23.20;90.30
53752;DHT22;41095;53.090;6.692;2023-06-26T15:46:50;23.20;90.90
53752;DHT22;41095;53.090;6.692;2023-06-26T15:49:16;23.30;85.80
53752;DHT22;41095;53.090;6.692;2023-06-26T15:51:41;23.20;86.70
53752;DHT22;41095;53.090;6.692;2023-06-26T15:54:07;23.10;86.50
53752;DHT22;41095;53.090;6.692;2023-06-26T15:56:33;23.20;86.80
53752;DHT22;41095;53.090;6.692;2023-06-26T15:58:59;23.10;87.00
53752;DHT22;41095;53.090;6.692;2023-06-26T16:01:24;23.20;87.30
53752;DHT22;41095;53.090;6.692;2023-06-26T16:03:51;23.10;87.30
53752;DHT22;41095;53.090;6.692;2023-06-26T16:06:17;22.50;91.10
53752;DHT22;41095;53.090;6.692;2023-06-26T16:08:43;22.80;87.20
53752;DHT22;41095;53.090;6.692;2023-06-26T16:11:09;22.80;87.00
53752;DHT22;41095;53.090;6.692;2023-06-26T16:13:35;22.60;87.10
53752;DHT22;41095;53.090;6.692;2023-06-26T16:16:01;22.60;91.10
53752;DHT22;41095;53.090;6.692;2023-06-26T16:18:27;21.70;90.60
53752;DHT22;41095;53.090;6.692;2023-06-26T16:20:54;22.50;88.60
53752;DHT22;41095;53.090;6.692;2023-06-26T16:23:20;22.20;86.50
53752;DHT22;41095;53.090;6.692;2023-06-26T16:25:46;22.30;85.80
53752;DHT22;41095;53.090;6.692;2023-06-26T16:28:12;22.40;86.00
53752;DHT22;41095;53.090;6.692;2023-06-26T16:30:38;22.70;85.60
53752;DHT22;41095;53.090;6.692;2023-06-26T16:33:06;23.00;85.20
53752;DHT22;41095;53.090;6.692;2023-06-26T16:35:32;23.20;83.40